Time;durP1;ratioP1;P1;durP2;ratioP2;P2;SDS_P1;SDS_P2;PMS_P1;PMS_P2;Temp;Humidity;BMP_temperature;BMP_pressure;BME280_temperature;BME280_humidity;BME280_pressure;Samples;Min_cycle;Max_cycle;Signal;HPM_P1;HPM_P2
2022/09/17 00:01:27;;;;;;;;;2.00;2.00;;;;;14.98;99.93;101675.56;5051899;28;45412;-71
2022/09/17 00:03:55;;;;;;;;;1.00;1.00;;;;;14.93;100.00;101670.22;5056256;28;46182;-72
2022/09/17 00:06:22;;;;;;;;;1.00;1.00;;;;;14.91;100.00;101674.59;5073563;28;46149;-71
2022/09/17 00:08:48;;;;;;;;;3.67;2.00;;;;;14.92;100.00;101679.06;5054407;28;45522;-71
2022/09/17 00:11:22;;;;;;;;;2.00;2.00;;;;;14.87;100.00;101670.19;5058970;28;45453;-72
2022/09/17 00:13:49;;;;;;;;;1.00;1.00;;;;;14.80;100.00;101663.00;5053739;28;46936;-71
2022/09/17 00:16:28;;;;;;;;;2.67;1.00;;;;;14.82;100.00;101674.56;5055466;28;45429;-72
2022/09/17 00:18:54;;;;;;;;;2.00;2.00;;;;;14.80;100.00;101668.34;5058766;28;45223;-74
2022/09/17 00:21:21;;;;;;;;;2.00;0.67;;;;;14.77;100.00;101673.66;5067353;28;45448;-73
2022/09/17 00:23:46;;;;;;;;;1.00;1.00;;;;;14.77;100.00;101668.31;5058739;28;46670;-71
2022/09/17 00:26:11;;;;;;;;;1.00;1.00;;;;;14.75;100.00;101676.28;5056840;28;45368;-71
2022/09/17 00:28:37;;;;;;;;;1.00;1.00;;;;;14.74;100.00;101676.28;5071844;28;62777;-71
2022/09/17 00:31:07;;;;;;;;;3.33;1.33;;;;;14.72;100.00;101680.69;5052161;28;45463;-72
2022/09/17 00:33:32;;;;;;;;;2.00;1.00;;;;;14.69;100.00;101670.91;5056798;28;45371;-73
2022/09/17 00:35:59;;;;;;;;;1.00;1.00;;;;;14.68;100.00;101680.66;5051648;28;45507;-71
2022/09/17 00:38:25;;;;;;;;;2.00;2.00;;;;;14.61;100.00;101676.19;5055386;28;45468;-71
2022/09/17 00:40:51;;;;;;;;;1.67;1.67;;;;;14.61;100.00;101681.50;5058260;28;45203;-71
2022/09/17 00:44:01;;;;;;;;;1.67;1.33;;;;;14.59;100.00;101682.34;5052809;28;65577;-71
2022/09/17 00:46:36;;;;;;;;;1.67;0.33;;;;;14.57;100.00;101684.13;5034189;28;45341;-73
2022/09/17 00:49:13;;;;;;;;;1.00;1.00;;;;;14.55;100.00;101667.28;5051737;28;45296;-73
2022/09/17 00:51:46;;;;;;;;;1.00;1.00;;;;;14.54;100.00;101669.06;5055161;28;45176;-71
2022/09/17 00:54:12;;;;;;;;;2.00;1.00;;;;;14.53;100.00;101667.25;5057389;28;46873;-71
2022/09/17 00:56:39;;;;;;;;;1.00;1.00;;;;;14.55;100.00;101668.16;5056981;28;55840;-74
2022/09/17 00:59:05;;;;;;;;;1.00;1.00;;;;;14.53;100.00;101674.34;5050738;28;45524;-71
2022/09/17 01:01:31;;;;;;;;;1.67;1.00;;;;;14.54;100.00;101671.72;5055108;28;45576;-71
2022/09/17 01:03:56;;;;;;;;;4.33;2.00;;;;;14.55;100.00;101669.94;5056135;28;53249;-73
2022/09/17 01:06:31;;;;;;;;;1.33;1.00;;;;;14.55;100.00;101686.78;5054308;28;59970;-73
2022/09/17 01:09:38;;;;;;;;;2.00;2.00;;;;;14.56;100.00;101680.56;5056736;28;45347;-71
2022/09/17 01:12:18;;;;;;;;;0.33;0.33;;;;;14.57;100.00;101690.31;5037445;28;45687;-73
2022/09/17 01:14:59;;;;;;;;;1.00;1.00;;;;;14.55;100.00;101685.88;5053388;28;45515;-71
2022/09/17 01:17:52;;;;;;;;;1.67;1.00;;;;;14.55;100.00;101689.44;5056516;28;45457;-71
2022/09/17 01:20:31;;;;;;;;;1.00;1.00;;;;;14.55;100.00;101699.19;5057496;28;45430;-71
2022/09/17 01:23:38;;;;;;;;;2.00;1.00;;;;;14.54;100.00;101695.63;5054186;28;45330;-71
2022/09/17 01:26:38;;;;;;;;;1.00;1.00;;;;;14.53;100.00;101695.59;5052365;28;46741;-71
2022/09/17 01:29:22;;;;;;;;;1.00;1.00;;;;;14.48;100.00;101695.53;5018714;28;45528;-73
2022/09/17 01:31:53;;;;;;;;;2.00;0.67;;;;;14.44;100.00;101696.38;5054203;28;45494;-73
2022/09/17 01:34:30;;;;;;;;;1.00;1.00;;;;;14.45;100.00;101698.16;5036346;28;45518;-71
2022/09/17 01:36:56;;;;;;;;;2.00;1.00;;;;;14.43;100.00;101702.56;5035362;28;46056;-71
2022/09/17 01:39:37;;;;;;;;;3.00;1.00;;;;;14.35;100.00;101697.19;5054315;28;45473;-75
2022/09/17 01:42:14;;;;;;;;;3.00;2.00;;;;;14.37;100.00;101706.03;5057286;28;45520;-71
2022/09/17 01:44:56;;;;;;;;;3.00;1.00;;;;;14.36;100.00;101714.00;5054401;28;45635;-72
2022/09/17 01:47:28;;;;;;;;;1.00;1.00;;;;;14.34;100.00;101708.69;5052848;28;46115;-71
2022/09/17 01:50:00;;;;;;;;;3.00;1.00;;;;;14.29;100.00;101699.78;5046291;28;45442;-74
2022/09/17 01:52:27;;;;;;;;;1.33;1.33;;;;;14.29;100.00;101712.19;5052815;28;45178;-71
2022/09/17 01:54:55;;;;;;;;;1.00;1.00;;;;;14.22;100.00;101708.59;5054497;28;45396;-71
2022/09/17 01:57:54;;;;;;;;;1.00;1.00;;;;;14.22;100.00;101710.31;5052318;28;45926;-71
2022/09/17 02:00:21;;;;;;;;;2.00;1.00;;;;;14.21;100.00;101713.84;5007679;28;45570;-70
2022/09/17 02:03:07;;;;;;;;;2.00;1.00;;;;;14.20;100.00;101714.75;5053670;28;45546;-71
2022/09/17 02:05:48;;;;;;;;;0.00;0.00;;;;;14.14;100.00;101707.59;5052649;28;45461;-71
2022/09/17 02:08:18;;;;;;;;;3.00;1.67;;;;;14.11;100.00;101711.13;5053249;28;45413;-71
2022/09/17 02:11:05;;;;;;;;;1.00;1.00;;;;;14.12;100.00;101706.69;5052277;28;45314;-73
2022/09/17 02:13:40;;;;;;;;;2.00;0.33;;;;;14.08;100.00;101707.53;5049084;28;45377;-71
2022/09/17 02:16:12;;;;;;;;;2.67;0.00;;;;;14.04;100.00;101698.63;5057378;28;45350;-71
2022/09/17 02:18:53;;;;;;;;;1.00;1.00;;;;;14.06;100.00;101704.88;5052576;28;46356;-71
2022/09/17 02:21:34;;;;;;;;;0.00;0.00;;;;;14.05;100.00;101707.50;5051030;28;46205;-71
2022/09/17 02:24:05;;;;;;;;;0.33;0.00;;;;;14.07;100.00;101708.41;5052410;28;45517;-72
2022/09/17 02:26:33;;;;;;;;;1.00;1.00;;;;;14.05;100.00;101708.38;5050113;28;46720;-71
2022/09/17 02:29:06;;;;;;;;;0.00;0.00;;;;;14.05;100.00;101702.19;5034647;28;46883;-71
2022/09/17 02:31:31;;;;;;;;;2.00;0.00;;;;;14.03;100.00;101695.97;5017548;28;45487;-71
2022/09/17 02:34:00;;;;;;;;;2.00;0.00;;;;;14.03;100.00;101691.56;5019268;28;45452;-73
2022/09/17 02:36:26;;;;;;;;;0.00;0.00;;;;;14.07;100.00;101695.13;5036156;28;45323;-71
2022/09/17 02:39:00;;;;;;;;;0.67;0.67;;;;;14.04;100.00;101692.44;5017799;28;45610;-71
2022/09/17 02:41:35;;;;;;;;;5.00;0.00;;;;;14.05;100.00;101688.91;5036376;28;45399;-71
2022/09/17 02:44:00;;;;;;;;;0.33;0.33;;;;;14.04;100.00;101703.94;5034407;28;45447;-71
2022/09/17 02:46:42;;;;;;;;;1.00;1.00;;;;;14.01;100.00;101700.34;5037079;28;45604;-71
2022/09/17 02:49:17;;;;;;;;;0.67;0.00;;;;;13.97;100.00;101693.25;5033606;28;45788;-71
2022/09/17 02:52:04;;;;;;;;;0.00;0.00;;;;;14.02;100.00;101702.16;5034899;28;45590;-71
2022/09/17 02:54:37;;;;;;;;;2.00;1.00;;;;;14.00;100.00;101695.94;5036355;28;45239;-71
2022/09/17 02:57:26;;;;;;;;;3.67;0.33;;;;;13.99;100.00;101697.69;5019135;28;45329;-71
2022/09/17 03:00:10;;;;;;;;;4.00;1.00;;;;;13.99;100.00;101710.97;5010170;28;45880;-71
2022/09/17 03:02:59;;;;;;;;;0.00;0.00;;;;;13.95;100.00;101698.53;5028559;28;45282;-71
2022/09/17 03:05:26;;;;;;;;;1.00;1.00;;;;;13.96;100.00;101708.31;5010754;28;45584;-71
2022/09/17 03:07:54;;;;;;;;;0.00;0.00;;;;;13.97;100.00;101709.19;5015317;28;45491;-71
2022/09/17 03:10:20;;;;;;;;;0.00;0.00;;;;;13.92;100.00;101701.16;5032915;28;45820;-71
2022/09/17 03:12:45;;;;;;;;;0.00;0.00;;;;;13.91;100.00;101698.50;5035921;28;45340;-71
2022/09/17 03:15:11;;;;;;;;;2.00;0.00;;;;;13.89;100.00;101701.13;5036506;28;45694;-71
2022/09/17 03:17:36;;;;;;;;;0.33;0.33;;;;;13.86;100.00;101698.44;5017473;28;52260;-71
2022/09/17 03:20:02;;;;;;;;;0.33;0.33;;;;;13.86;100.00;101701.09;5032818;28;70704;-71
2022/09/17 03:22:27;;;;;;;;;1.00;1.00;;;;;13.87;100.00;101711.72;5018029;28;45337;-71
2022/09/17 03:24:53;;;;;;;;;1.00;1.00;;;;;13.86;100.00;101706.41;5029968;28;45602;-71
2022/09/17 03:27:18;;;;;;;;;0.00;0.00;;;;;13.80;100.00;101701.94;5031103;28;45580;-71
2022/09/17 03:29:43;;;;;;;;;0.00;0.00;;;;;13.78;100.00;101697.44;5049208;28;65841;-74
2022/09/17 03:32:09;;;;;;;;;0.00;0.00;;;;;13.79;100.00;101705.44;5030305;28;56362;-71
2022/09/17 03:34:34;;;;;;;;;2.00;0.00;;;;;13.76;100.00;101708.06;5036400;28;45400;-71
2022/09/17 03:36:59;;;;;;;;;1.00;1.00;;;;;13.79;100.00;101715.16;5054511;28;57862;-71
2022/09/17 03:39:25;;;;;;;;;0.67;0.67;;;;;13.76;100.00;101707.19;5051008;28;64029;-70
2022/09/17 03:41:50;;;;;;;;;3.00;1.00;;;;;13.77;100.00;101708.94;5051916;28;62258;-72
2022/09/17 03:44:18;;;;;;;;;0.00;0.00;;;;;13.75;100.00;101711.59;5032153;28;45218;-71
2022/09/17 03:46:43;;;;;;;;;2.67;1.00;;;;;13.73;100.00;101704.47;5056068;28;45427;-74
2022/09/17 03:49:08;;;;;;;;;1.33;0.00;;;;;13.68;100.00;101707.06;5055029;28;46300;-71
2022/09/17 03:51:34;;;;;;;;;1.33;1.33;;;;;13.70;100.00;101715.97;5054510;28;65049;-71
2022/09/17 03:53:59;;;;;;;;;1.00;1.00;;;;;13.70;100.00;101720.38;5018645;28;45332;-72
2022/09/17 03:56:25;;;;;;;;;3.00;1.00;;;;;13.65;100.00;101715.00;5055061;28;48832;-71
2022/09/17 03:58:51;;;;;;;;;1.00;1.00;;;;;13.66;100.00;101721.19;5035399;28;46366;-71
2022/09/17 04:01:16;;;;;;;;;0.00;0.00;;;;;13.60;100.00;101712.28;5026459;28;45375;-71
2022/09/17 04:03:42;;;;;;;;;1.00;1.00;;;;;13.58;100.00;101715.78;5052422;28;58143;-75
2022/09/17 04:06:07;;;;;;;;;0.67;0.67;;;;;13.55;100.00;101718.41;5052177;28;45464;-73
2022/09/17 04:08:32;;;;;;;;;1.00;1.00;;;;;13.57;100.00;101728.16;5053236;28;64357;-72
2022/09/17 04:10:58;;;;;;;;;1.00;1.00;;;;;13.54;100.00;101725.47;5049052;28;45427;-71
2022/09/17 04:13:23;;;;;;;;;0.67;0.00;;;;;13.56;100.00;101730.81;5055724;28;45761;-71
2022/09/17 04:15:49;;;;;;;;;1.33;1.33;;;;;13.53;100.00;101731.66;5054670;28;52744;-71
2022/09/17 04:18:14;;;;;;;;;0.67;0.67;;;;;13.45;100.00;101730.66;5049054;28;64473;-71
2022/09/17 04:20:39;;;;;;;;;1.00;1.00;;;;;13.43;100.00;101737.72;5055204;28;50082;-71
2022/09/17 04:23:08;;;;;;;;;1.00;1.00;;;;;13.41;100.00;101736.78;5055186;28;45310;-71
2022/09/17 04:25:33;;;;;;;;;2.00;2.00;;;;;13.42;100.00;101745.63;5032272;28;45498;-71
2022/09/17 04:27:58;;;;;;;;;0.67;0.67;;;;;13.41;100.00;101743.84;5052357;28;45801;-71
2022/09/17 04:30:24;;;;;;;;;1.00;1.00;;;;;13.41;100.00;101749.16;5045867;28;59908;-71
2022/09/17 04:32:49;;;;;;;;;2.33;2.00;;;;;13.42;100.00;101753.59;5057004;28;57449;-72
2022/09/17 04:35:14;;;;;;;;;0.00;0.00;;;;;13.35;100.00;101747.31;5058213;28;56703;-71
2022/09/17 04:37:40;;;;;;;;;2.33;1.00;;;;;13.31;100.00;101737.53;5058137;28;47211;-72
2022/09/17 04:40:06;;;;;;;;;1.00;1.00;;;;;13.38;100.00;101751.78;5058077;28;54695;-71
2022/09/17 04:42:31;;;;;;;;;1.67;1.00;;;;;13.36;100.00;101749.09;5036973;28;45309;-75
2022/09/17 04:44:57;;;;;;;;;1.00;1.00;;;;;13.39;100.00;101750.91;5053663;28;51093;-71
2022/09/17 04:47:23;;;;;;;;;1.67;1.00;;;;;13.35;100.00;101749.97;5058319;28;45842;-71
2022/09/17 04:49:48;;;;;;;;;1.00;1.00;;;;;13.38;100.00;101751.78;5058304;28;45636;-71
2022/09/17 04:52:14;;;;;;;;;2.33;2.00;;;;;13.39;100.00;101750.91;5056142;28;61993;-74
2022/09/17 04:54:39;;;;;;;;;1.00;1.00;;;;;13.39;100.00;101756.22;5053503;28;45633;-71
2022/09/17 04:57:04;;;;;;;;;1.33;1.00;;;;;13.33;100.00;101749.06;5032921;28;45434;-71
2022/09/17 04:59:30;;;;;;;;;1.00;1.00;;;;;13.31;100.00;101750.78;5033773;28;48485;-71
2022/09/17 05:01:55;;;;;;;;;1.00;1.00;;;;;13.32;100.00;101761.44;5037294;28;45440;-71
2022/09/17 05:04:20;;;;;;;;;2.33;1.67;;;;;13.32;100.00;101755.25;5058376;28;45478;-71
2022/09/17 05:06:46;;;;;;;;;1.00;1.00;;;;;13.31;100.00;101766.69;5057500;28;65238;-71
2022/09/17 05:09:11;;;;;;;;;1.67;1.00;;;;;13.24;100.00;101760.41;5049780;28;66487;-71
2022/09/17 05:11:37;;;;;;;;;1.00;1.00;;;;;13.24;100.00;101767.50;5057621;28;55204;-73
2022/09/17 05:14:02;;;;;;;;;2.00;2.00;;;;;13.21;100.00;101762.09;5038957;28;46014;-72
2022/09/17 05:16:27;;;;;;;;;1.00;1.00;;;;;13.16;100.00;101764.69;5056485;28;58806;-71
2022/09/17 05:18:53;;;;;;;;;0.33;0.33;;;;;13.16;100.00;101754.09;5058058;28;45462;-71
2022/09/17 05:21:19;;;;;;;;;0.67;0.67;;;;;13.16;100.00;101770.00;5056887;28;45327;-71
2022/09/17 05:23:45;;;;;;;;;1.00;1.00;;;;;13.12;100.00;101760.22;5052334;28;45569;-71
2022/09/17 05:26:10;;;;;;;;;1.33;0.67;;;;;13.16;100.00;101771.78;5039281;28;47970;-73
2022/09/17 05:28:36;;;;;;;;;3.00;1.00;;;;;13.15;100.00;101777.91;5056938;28;54189;-74
2022/09/17 05:31:01;;;;;;;;;1.00;1.00;;;;;13.13;100.00;101788.50;5057034;28;61783;-72
2022/09/17 05:33:27;;;;;;;;;3.00;1.00;;;;;13.07;100.00;101777.81;5022717;28;45367;-74
2022/09/17 05:35:53;;;;;;;;;2.00;2.00;;;;;13.04;100.00;101778.63;5038615;28;45389;-71
2022/09/17 05:38:18;;;;;;;;;3.00;1.00;;;;;13.03;100.00;101781.28;5049420;28;65289;-73
2022/09/17 05:40:45;;;;;;;;;2.00;1.00;;;;;13.01;100.00;101783.91;5038571;28;45439;-71
2022/09/17 05:43:10;;;;;;;;;1.00;1.00;;;;;13.02;100.00;101782.16;5057726;28;46438;-73
2022/09/17 05:45:36;;;;;;;;;0.00;0.00;;;;;13.02;100.00;101783.03;5056686;28;46035;-71
2022/09/17 05:48:05;;;;;;;;;1.00;1.00;;;;;13.02;100.00;101785.69;5057440;28;45426;-71
2022/09/17 05:50:31;;;;;;;;;1.00;1.00;;;;;13.03;100.00;101778.63;5057586;28;45431;-72
2022/09/17 05:53:01;;;;;;;;;1.00;1.00;;;;;13.02;100.00;101782.16;5039489;28;45388;-71
2022/09/17 05:55:26;;;;;;;;;1.00;1.00;;;;;13.06;100.00;101789.28;5038584;28;45892;-71
2022/09/17 05:57:51;;;;;;;;;3.00;2.00;;;;;13.06;100.00;101790.16;5057673;28;45435;-70
2022/09/17 06:00:17;;;;;;;;;2.00;1.33;;;;;13.02;100.00;101782.16;5053385;28;45455;-71
2022/09/17 06:02:43;;;;;;;;;4.00;2.00;;;;;13.01;100.00;101785.66;5052931;28;46295;-70
2022/09/17 06:05:08;;;;;;;;;3.33;2.00;;;;;13.02;100.00;101793.63;5035393;28;46253;-69
2022/09/17 06:07:35;;;;;;;;;2.00;2.00;;;;;13.02;100.00;101787.44;5056635;28;45287;-69
2022/09/17 06:10:01;;;;;;;;;1.00;1.00;;;;;13.06;100.00;101795.47;5036430;28;45348;-72
2022/09/17 06:12:26;;;;;;;;;3.00;1.00;;;;;13.06;100.00;101794.59;5039545;28;45297;-70
2022/09/17 06:14:52;;;;;;;;;1.00;1.00;;;;;13.13;100.00;101795.56;5055865;28;62457;-70
2022/09/17 06:17:17;;;;;;;;;2.00;2.00;;;;;13.13;100.00;101796.47;5054089;28;66737;-70
2022/09/17 06:19:42;;;;;;;;;1.33;1.33;;;;;13.17;100.00;101805.38;5052097;28;57744;-70
2022/09/17 06:22:08;;;;;;;;;2.67;2.00;;;;;13.18;100.00;101810.69;5054465;28;57261;-69
2022/09/17 06:24:33;;;;;;;;;1.00;1.00;;;;;13.18;100.00;101805.38;5053683;28;60627;-69
2022/09/17 06:26:59;;;;;;;;;3.67;2.00;;;;;13.18;100.00;101800.06;5055563;28;45193;-69
2022/09/17 06:29:24;;;;;;;;;1.33;1.33;;;;;13.25;100.00;101801.09;5170351;22;59267;-69
2022/09/17 06:31:50;;;;;;;;;2.00;2.00;;;;;13.27;100.00;101804.69;5075902;28;45436;-69
2022/09/17 06:34:16;;;;;;;;;1.33;0.33;;;;;13.29;100.00;101808.22;5074071;28;46232;-70
2022/09/17 06:36:42;;;;;;;;;1.00;1.00;;;;;13.36;100.00;101812.75;5061846;28;45387;-70
2022/09/17 06:39:08;;;;;;;;;1.00;1.00;;;;;13.39;100.00;101814.59;5058401;28;45448;-70
2022/09/17 06:41:33;;;;;;;;;2.00;2.00;;;;;13.41;100.00;101810.19;5076608;28;45593;-69
2022/09/17 06:44:00;;;;;;;;;2.00;2.00;;;;;13.40;100.00;101811.94;5058709;28;45695;-70
2022/09/17 06:46:26;;;;;;;;;2.00;2.00;;;;;13.43;100.00;101827.91;5077248;28;45195;-69
2022/09/17 06:48:51;;;;;;;;;1.33;1.00;;;;;13.44;100.00;101823.50;5073610;28;45475;-70
2022/09/17 06:51:16;;;;;;;;;1.00;1.00;;;;;13.42;100.00;101823.44;5076860;28;45615;-71
2022/09/17 06:53:42;;;;;;;;;0.33;0.33;;;;;13.45;100.00;101826.16;5073076;28;46381;-70
2022/09/17 06:56:08;;;;;;;;;1.00;1.00;;;;;13.44;100.00;101821.75;5073376;27;45561;-69
2022/09/17 06:58:37;;;;;;;;;1.00;1.00;;;;;13.44;100.00;101808.47;5054509;28;45601;-70
2022/09/17 07:01:04;;;;;;;;;1.00;1.00;;;;;13.46;100.00;101827.94;5054696;28;45343;-70
2022/09/17 07:03:30;;;;;;;;;0.00;0.00;;;;;13.47;100.00;101819.13;5050927;28;47337;-70
2022/09/17 07:05:56;;;;;;;;;1.00;1.00;;;;;13.49;100.00;101820.03;5070761;28;45706;-70
2022/09/17 07:08:22;;;;;;;;;2.00;1.00;;;;;13.58;100.00;101816.63;5042381;28;45489;-69
2022/09/17 07:10:48;;;;;;;;;0.67;0.67;;;;;13.61;100.00;101825.53;5047383;28;45650;-71
2022/09/17 07:13:13;;;;;;;;;1.00;1.00;;;;;13.66;100.00;101830.00;5073271;28;65906;-70
2022/09/17 07:15:39;;;;;;;;;1.00;1.00;;;;;13.62;100.00;101811.38;5051731;28;45493;-70
2022/09/17 07:18:08;;;;;;;;;0.67;0.67;;;;;13.69;100.00;101817.69;5072909;28;61742;-70
2022/09/17 07:20:34;;;;;;;;;1.00;1.00;;;;;13.69;100.00;101817.69;5073746;28;45494;-69
2022/09/17 07:23:00;;;;;;;;;3.00;1.67;;;;;13.69;100.00;101819.41;5056976;28;46485;-70
2022/09/17 07:25:25;;;;;;;;;2.00;0.67;;;;;13.71;100.00;101823.00;5043745;28;45458;-70
2022/09/17 07:27:51;;;;;;;;;0.00;0.00;;;;;13.70;100.00;101826.53;5073931;28;45365;-72
2022/09/17 07:30:16;;;;;;;;;2.00;0.00;;;;;13.69;100.00;101814.13;5054449;28;45375;-70
2022/09/17 07:32:42;;;;;;;;;1.00;0.00;;;;;13.72;100.00;101825.69;5065399;28;47982;-70
2022/09/17 07:35:07;;;;;;;;;0.00;0.00;;;;;13.77;100.00;101825.75;5068885;28;67232;-70
2022/09/17 07:37:33;;;;;;;;;0.67;0.00;;;;;13.79;100.00;101816.03;5070030;28;45179;-69
2022/09/17 07:39:58;;;;;;;;;0.00;0.00;;;;;13.82;100.00;101818.75;5073862;28;60470;-69
2022/09/17 07:42:24;;;;;;;;;0.00;0.00;;;;;13.88;100.00;101821.47;5050670;28;70223;-68
2022/09/17 07:44:49;;;;;;;;;2.00;0.00;;;;;13.92;100.00;101818.00;5071604;28;45518;-69
2022/09/17 07:47:15;;;;;;;;;1.00;0.00;;;;;13.96;100.00;101821.59;5057302;28;45480;-68
2022/09/17 07:49:40;;;;;;;;;0.00;0.00;;;;;13.98;100.00;101810.09;5075770;28;45430;-69
2022/09/17 07:52:05;;;;;;;;;0.67;0.00;;;;;14.02;100.00;101809.28;5074431;28;71045;-70
2022/09/17 07:54:32;;;;;;;;;0.00;0.00;;;;;14.07;100.00;101815.53;5056090;28;45446;-69
2022/09/17 07:56:58;;;;;;;;;0.00;0.00;;;;;14.09;100.00;101811.13;5057215;28;45501;-69
2022/09/17 07:59:23;;;;;;;;;0.00;0.00;;;;;14.19;100.00;101821.88;5074523;28;45446;-71
2022/09/17 08:01:49;;;;;;;;;0.00;0.00;;;;;14.25;100.00;101821.94;5037823;28;45736;-69
2022/09/17 08:04:14;;;;;;;;;1.00;0.00;;;;;14.28;100.00;101812.25;5070497;28;45318;-70
2022/09/17 08:06:40;;;;;;;;;0.00;0.00;;;;;14.32;100.00;101813.16;5075887;28;45445;-69
2022/09/17 08:09:06;;;;;;;;;1.33;0.00;;;;;14.38;100.00;101811.47;5079321;28;45425;-70
2022/09/17 08:11:32;;;;;;;;;2.00;0.00;;;;;14.45;100.00;101822.16;5078360;27;45948;-69
2022/09/17 08:13:57;;;;;;;;;0.00;0.00;;;;;14.46;100.00;101822.19;5078105;28;45819;-70
2022/09/17 08:16:23;;;;;;;;;2.33;0.00;;;;;14.50;100.00;101829.34;5078291;28;45530;-69
2022/09/17 08:18:53;;;;;;;;;0.00;0.00;;;;;14.54;100.00;101820.53;5059246;28;45400;-70
2022/09/17 08:21:19;;;;;;;;;0.00;0.00;;;;;14.54;100.00;101824.94;5076419;28;46176;-71
2022/09/17 08:23:44;;;;;;;;;1.33;0.00;;;;;14.49;100.00;101829.31;5085024;27;45424;-70
2022/09/17 08:26:14;;;;;;;;;2.67;0.00;;;;;14.49;100.00;101839.94;5059556;28;45299;-72
2022/09/17 08:28:43;;;;;;;;;0.00;0.00;;;;;14.45;100.00;101836.34;5075273;28;45483;-71
2022/09/17 08:31:08;;;;;;;;;2.33;0.00;;;;;14.40;100.00;101824.78;5072098;28;45969;-70
2022/09/17 08:33:36;;;;;;;;;0.00;0.00;;;;;14.44;100.00;101828.38;5058261;28;56576;-69
2022/09/17 08:36:02;;;;;;;;;2.00;0.00;;;;;14.48;100.00;101832.84;5065729;28;45387;-70
2022/09/17 08:38:32;;;;;;;;;0.00;0.00;;;;;14.50;100.00;101844.41;5061114;27;46032;-70
2022/09/17 08:41:04;;;;;;;;;0.00;0.00;;;;;14.57;100.00;101840.94;5054700;27;46499;-70
2022/09/17 08:43:33;;;;;;;;;1.00;0.00;;;;;14.55;100.00;101838.25;5065473;28;45839;-70
2022/09/17 08:45:58;;;;;;;;;1.00;0.00;;;;;14.64;100.00;101856.06;5029396;28;45632;-71
2022/09/17 08:48:33;;;;;;;;;0.00;0.00;;;;;14.65;100.00;101856.09;5064737;28;54683;-69
2022/09/17 08:50:59;;;;;;;;;0.00;0.00;;;;;14.72;100.00;101858.81;5056769;27;46912;-71
2022/09/17 08:53:50;;;;;;;;;0.00;0.00;;;;;14.77;100.00;101850.00;5030680;28;65937;-71
2022/09/17 08:56:17;;;;;;;;;0.00;0.00;;;;;14.84;100.00;101858.94;5056567;27;45709;-71
2022/09/17 08:59:07;;;;;;;;;0.00;0.00;;;;;14.88;100.00;101861.63;5056935;27;45689;-70
2022/09/17 09:01:44;;;;;;;;;0.33;0.00;;;;;14.91;100.00;101858.09;5049945;28;46028;-72
2022/09/17 09:04:19;;;;;;;;;0.00;0.00;;;;;14.93;100.00;101853.72;5049438;28;45568;-70
2022/09/17 09:06:54;;;;;;;;;1.67;0.00;;;;;14.94;100.00;101848.41;5070408;27;45847;-72
2022/09/17 09:09:23;;;;;;;;;2.00;0.00;;;;;15.01;100.00;101856.41;5065859;28;45638;-72
2022/09/17 09:11:57;;;;;;;;;2.67;0.00;;;;;15.06;100.00;101850.25;5035461;28;46070;-74
2022/09/17 09:14:27;;;;;;;;;1.00;0.00;;;;;15.13;100.00;101844.16;5037340;28;45856;-74
2022/09/17 09:16:54;;;;;;;;;1.00;0.67;;;;;15.23;100.00;101853.06;5049881;28;45715;-73
2022/09/17 09:19:28;;;;;;;;;0.00;0.00;;;;;15.33;100.00;101856.69;5035870;28;45641;-73
2022/09/17 09:22:05;;;;;;;;;2.00;0.00;;;;;15.43;100.00;101866.53;5033706;28;45505;-78
2022/09/17 09:24:41;;;;;;;;;0.00;0.00;;;;;15.55;100.00;101861.28;5067126;27;45497;-72
2022/09/17 09:27:21;;;;;;;;;3.00;0.00;;;;;15.69;100.00;101862.31;5062048;27;45863;-74
2022/09/17 09:30:13;;;;;;;;;0.00;0.00;;;;;15.82;100.00;101854.41;5046274;28;45562;-75
2022/09/17 09:32:57;;;;;;;;;1.67;0.00;;;;;16.03;100.00;101865.16;5060005;27;45673;-73
2022/09/17 09:35:26;;;;;;;;;0.00;0.00;;;;;16.08;97.44;101857.19;5045997;27;45569;-73
2022/09/17 09:38:20;;;;;;;;;1.00;0.00;;;;;16.18;97.31;101867.03;5061419;27;45916;-75
2022/09/17 09:40:52;;;;;;;;;0.00;0.00;;;;;16.21;94.93;101851.06;5065147;27;45830;-73
2022/09/17 09:43:43;;;;;;;;;0.00;0.00;;;;;16.30;93.20;101871.50;5046055;28;45731;-75
2022/09/17 09:46:34;;;;;;;;;2.00;0.00;;;;;16.32;93.83;101878.63;5049085;28;45867;-73
2022/09/17 09:49:25;;;;;;;;;1.67;0.00;;;;;16.28;92.04;101867.97;5050576;28;45452;-74
2022/09/17 09:52:09;;;;;;;;;1.00;0.00;;;;;16.27;90.99;101855.53;5063438;27;45859;-74
2022/09/17 09:54:53;;;;;;;;;0.33;0.00;;;;;16.29;90.55;101859.06;5047039;28;46943;-74
2022/09/17 09:57:34;;;;;;;;;0.00;0.00;;;;;16.34;92.23;101863.53;5069807;27;45785;-75
2022/09/17 10:00:24;;;;;;;;;0.00;0.00;;;;;16.48;92.51;101861.81;5050648;27;45805;-76
2022/09/17 10:02:53;;;;;;;;;0.00;0.00;;;;;16.59;91.13;101861.84;5066208;27;45614;-76
2022/09/17 10:05:18;;;;;;;;;0.00;0.00;;;;;16.64;88.54;101864.53;5043893;28;45932;-73
2022/09/17 10:07:44;;;;;;;;;0.00;0.00;;;;;16.63;89.47;101860.09;5067453;27;67384;-73
2022/09/17 10:10:10;;;;;;;;;0.00;0.00;;;;;16.61;89.05;101862.72;5067905;28;60074;-73
2022/09/17 10:12:35;;;;;;;;;1.00;0.00;;;;;16.61;88.80;101854.72;5068967;27;45581;-73
2022/09/17 10:15:24;;;;;;;;;0.00;0.00;;;;;16.68;87.84;101861.00;5068034;28;69320;-73
2022/09/17 10:18:10;;;;;;;;;3.00;0.00;;;;;16.70;87.48;101860.09;5048441;28;45530;-73
2022/09/17 10:20:57;;;;;;;;;0.00;0.00;;;;;16.73;87.50;101861.94;5033372;28;45489;-72
2022/09/17 10:23:25;;;;;;;;;0.00;0.00;;;;;16.78;87.61;101854.81;5061538;28;45518;-73
2022/09/17 10:25:52;;;;;;;;;1.00;0.00;;;;;16.76;87.47;101852.13;5039138;28;45901;-71
2022/09/17 10:28:23;;;;;;;;;0.00;0.00;;;;;16.92;88.73;101854.84;5065569;27;45609;-70
2022/09/17 10:31:00;;;;;;;;;0.33;0.00;;;;;17.14;85.98;101847.72;5067302;27;45550;-71
2022/09/17 10:33:30;;;;;;;;;0.00;0.00;;;;;17.33;84.75;101846.84;5050641;28;45465;-71
2022/09/17 10:36:08;;;;;;;;;0.33;0.00;;;;;17.43;84.43;101840.59;5048019;28;45733;-75
2022/09/17 10:38:42;;;;;;;;;0.00;0.00;;;;;17.50;83.95;101854.84;5038466;28;45573;-72
2022/09/17 10:41:20;;;;;;;;;0.00;0.00;;;;;17.50;81.95;101845.03;5068068;27;45773;-72
2022/09/17 10:43:47;;;;;;;;;4.33;0.00;;;;;17.44;79.63;101850.38;5067387;27;45608;-70
2022/09/17 10:46:29;;;;;;;;;0.00;0.00;;;;;17.41;80.63;101834.34;5034878;28;45920;-70
2022/09/17 10:49:05;;;;;;;;;0.67;0.00;;;;;17.50;79.14;101839.69;5060678;27;45517;-73
2022/09/17 10:51:31;;;;;;;;;0.00;0.00;;;;;17.60;79.71;101839.69;5029295;28;45828;-71
2022/09/17 10:54:05;;;;;;;;;0.00;0.00;;;;;17.70;76.83;101833.44;5050517;28;45708;-72
2022/09/17 10:56:35;;;;;;;;;0.00;0.00;;;;;17.86;76.81;101829.88;5065009;27;46698;-75
2022/09/17 10:59:19;;;;;;;;;0.00;0.00;;;;;18.08;76.96;101836.03;5059651;27;45798;-72
2022/09/17 11:02:19;;;;;;;;;1.00;0.00;;;;;18.20;75.69;101832.41;5066491;27;45556;-71
2022/09/17 11:04:49;;;;;;;;;2.00;0.00;;;;;18.06;68.43;101832.47;5050654;27;45558;-71
2022/09/17 11:07:21;;;;;;;;;0.67;0.00;;;;;17.93;70.45;101833.41;5044669;28;46570;-72
2022/09/17 11:09:59;;;;;;;;;0.00;0.00;;;;;17.84;70.11;101825.41;5046260;27;45839;-73
2022/09/17 11:12:40;;;;;;;;;0.33;0.00;;;;;17.80;70.08;101808.50;5059572;27;45571;-73
2022/09/17 11:15:35;;;;;;;;;0.00;0.00;;;;;17.83;72.56;101803.16;5066858;28;45553;-72
2022/09/17 11:18:12;;;;;;;;;0.00;0.00;;;;;17.87;68.62;101801.34;5067480;27;46736;-72
2022/09/17 11:20:56;;;;;;;;;6.00;0.00;;;;;17.91;68.63;101803.13;5067573;27;45511;-71
2022/09/17 11:23:30;;;;;;;;;0.33;0.00;;;;;17.97;68.80;101795.09;5067406;27;45596;-71
2022/09/17 11:25:59;;;;;;;;;1.00;0.00;;;;;18.11;68.07;101792.34;5043533;28;45939;-71
2022/09/17 11:28:45;;;;;;;;;0.00;0.00;;;;;18.32;69.92;101795.81;5048842;28;45903;-71
2022/09/17 11:31:33;;;;;;;;;0.00;0.00;;;;;18.64;69.87;101809.88;5065923;27;45713;-70
2022/09/17 11:34:02;;;;;;;;;0.33;0.00;;;;;18.73;68.30;101799.13;5068034;27;45568;-71
2022/09/17 11:36:43;;;;;;;;;2.00;2.00;;;;;18.69;66.34;101802.72;5067214;27;45415;-72